Time;durP1;ratioP1;P1;durP2;ratioP2;P2;SDS_P1;SDS_P2;PMS_P1;PMS_P2;Temp;Humidity;BMP_temperature;BMP_pressure;BME280_temperature;BME280_humidity;BME280_pressure;Samples;Min_cycle;Max_cycle;Signal;HPM_P1;HPM_P2
2023/10/26 00:00:32;;;;;;;14.87;11.07;;;9.10;99.90;;;;;;5030939;28;20281;-85
2023/10/26 00:02:59;;;;;;;14.17;11.30;;;9.10;99.90;;;;;;5043058;28;20288;-85
2023/10/26 00:05:26;;;;;;;14.77;11.47;;;9.00;99.90;;;;;;5040196;28;20242;-85
2023/10/26 00:07:52;;;;;;;14.23;11.30;;;9.00;99.90;;;;;;5041585;28;20273;-85
2023/10/26 00:10:19;;;;;;;14.27;11.20;;;9.00;99.90;;;;;;5057423;28;20885;-86
2023/10/26 00:12:46;;;;;;;16.40;11.77;;;9.00;99.90;;;;;;5040729;28;20235;-85
2023/10/26 00:15:13;;;;;;;14.50;11.40;;;9.00;99.90;;;;;;5053614;28;20243;-85
2023/10/26 00:17:41;;;;;;;15.27;11.10;;;9.00;99.90;;;;;;5043818;28;20941;-85
2023/10/26 00:20:09;;;;;;;14.10;11.43;;;9.00;99.90;;;;;;5041657;28;20328;-86
2023/10/26 00:22:36;;;;;;;14.47;10.60;;;9.00;99.90;;;;;;5040530;28;20323;-85
2023/10/26 00:25:04;;;;;;;13.10;11.47;;;9.00;99.90;;;;;;5061226;28;20317;-84
2023/10/26 00:27:31;;;;;;;14.10;10.83;;;9.00;99.90;;;;;;5042579;28;20238;-86
2023/10/26 00:29:58;;;;;;;12.17;10.20;;;9.00;99.90;;;;;;5040903;28;20803;-86
2023/10/26 00:32:26;;;;;;;14.77;10.93;;;9.00;99.90;;;;;;5040456;28;20226;-86
2023/10/26 00:34:54;;;;;;;14.13;10.70;;;8.90;99.90;;;;;;5038895;28;20226;-86
2023/10/26 00:37:21;;;;;;;14.93;11.40;;;8.90;99.90;;;;;;5041105;28;20219;-85
2023/10/26 00:39:48;;;;;;;13.97;10.87;;;8.90;99.90;;;;;;5058606;28;20773;-86
2023/10/26 00:42:15;;;;;;;14.33;10.67;;;8.90;99.90;;;;;;5043384;28;20824;-87
2023/10/26 00:44:46;;;;;;;13.53;10.90;;;8.90;99.90;;;;;;5038232;28;20753;-86
2023/10/26 00:47:14;;;;;;;15.07;10.83;;;8.90;99.90;;;;;;5058144;28;20655;-86
2023/10/26 00:49:41;;;;;;;16.13;11.17;;;8.90;99.90;;;;;;5039707;28;20231;-86
2023/10/26 00:52:12;;;;;;;14.50;11.13;;;8.90;99.90;;;;;;5040843;28;20218;-87
2023/10/26 00:54:41;;;;;;;14.57;11.33;;;8.80;99.90;;;;;;5070221;28;20236;-85
2023/10/26 00:57:09;;;;;;;13.50;11.13;;;8.80;99.90;;;;;;5039255;28;20229;-86
2023/10/26 00:59:38;;;;;;;15.17;11.63;;;8.80;99.90;;;;;;5059053;28;20279;-86
2023/10/26 01:02:06;;;;;;;15.00;11.43;;;8.80;99.90;;;;;;5037927;28;20635;-86
2023/10/26 01:04:33;;;;;;;14.97;11.77;;;8.80;99.90;;;;;;5058966;28;20229;-84
2023/10/26 01:07:01;;;;;;;15.30;11.93;;;8.70;99.90;;;;;;5043361;28;20226;-86
2023/10/26 01:09:29;;;;;;;15.97;11.60;;;8.70;99.90;;;;;;5041453;28;20227;-86
2023/10/26 01:11:56;;;;;;;14.83;11.50;;;8.70;99.90;;;;;;5045136;28;20211;-85
2023/10/26 01:14:23;;;;;;;15.40;11.67;;;8.70;99.90;;;;;;5035757;28;20242;-86
2023/10/26 01:16:50;;;;;;;16.77;12.03;;;8.70;99.90;;;;;;5038431;28;21172;-85
2023/10/26 01:19:18;;;;;;;15.37;12.17;;;8.70;99.90;;;;;;5058866;28;20327;-85
2023/10/26 01:21:50;;;;;;;17.57;12.70;;;8.70;99.90;;;;;;5040903;28;20309;-84
2023/10/26 01:24:17;;;;;;;17.87;12.90;;;8.70;99.90;;;;;;5029085;28;20839;-85
2023/10/26 01:26:44;;;;;;;15.73;11.37;;;8.70;99.90;;;;;;5038965;28;20878;-85
2023/10/26 01:29:12;;;;;;;16.37;12.17;;;8.70;99.90;;;;;;5040507;28;20233;-85
2023/10/26 01:31:39;;;;;;;16.50;12.80;;;8.70;99.90;;;;;;5057122;28;20415;-84
2023/10/26 01:34:06;;;;;;;16.50;12.67;;;8.70;99.90;;;;;;5036021;28;20223;-85
2023/10/26 01:36:33;;;;;;;19.60;13.50;;;8.70;99.90;;;;;;5036498;28;20287;-84
2023/10/26 01:39:02;;;;;;;17.30;12.70;;;8.70;99.90;;;;;;5037390;28;20723;-84
2023/10/26 01:41:32;;;;;;;15.83;13.13;;;8.70;99.90;;;;;;5037657;28;20230;-84
2023/10/26 01:43:59;;;;;;;16.43;13.23;;;8.70;99.90;;;;;;5039580;28;20249;-84
2023/10/26 01:46:26;;;;;;;16.73;12.93;;;8.70;99.90;;;;;;5056608;28;20269;-84
2023/10/26 01:48:53;;;;;;;18.13;14.00;;;8.70;99.90;;;;;;5038680;28;20219;-86
2023/10/26 01:51:20;;;;;;;17.27;13.80;;;8.70;99.90;;;;;;5039584;28;20301;-85
2023/10/26 01:53:46;;;;;;;16.90;12.90;;;8.70;99.90;;;;;;5040678;28;20224;-85
2023/10/26 01:56:15;;;;;;;16.33;13.20;;;8.70;99.90;;;;;;5060712;28;20221;-85
2023/10/26 01:58:41;;;;;;;16.93;13.70;;;8.70;99.90;;;;;;5035892;28;20231;-85
2023/10/26 02:01:08;;;;;;;17.10;12.90;;;8.70;99.90;;;;;;5040050;28;20226;-85
2023/10/26 02:03:35;;;;;;;17.90;13.43;;;8.80;99.90;;;;;;5033900;28;20227;-85
2023/10/26 02:06:03;;;;;;;18.50;13.40;;;8.80;99.90;;;;;;5036842;28;21666;-85
2023/10/26 02:08:30;;;;;;;16.30;13.60;;;8.80;99.90;;;;;;5058107;28;20719;-84
2023/10/26 02:10:57;;;;;;;18.93;14.10;;;8.70;99.90;;;;;;5039781;28;20227;-84
2023/10/26 02:13:25;;;;;;;16.47;12.67;;;8.80;99.90;;;;;;5041508;28;20319;-85
2023/10/26 02:15:52;;;;;;;16.90;13.90;;;8.80;99.90;;;;;;5047115;28;20245;-84
2023/10/26 02:18:19;;;;;;;17.90;13.73;;;8.80;99.90;;;;;;5043125;28;20258;-85
2023/10/26 02:20:45;;;;;;;20.10;14.73;;;8.80;99.90;;;;;;5062403;28;20219;-85
2023/10/26 02:23:12;;;;;;;18.87;14.63;;;8.80;99.90;;;;;;5041787;28;20242;-85
2023/10/26 02:25:39;;;;;;;18.40;14.20;;;8.80;99.90;;;;;;5042362;28;20234;-84
2023/10/26 02:28:06;;;;;;;19.63;13.20;;;8.80;99.90;;;;;;5040446;28;20242;-85
2023/10/26 02:30:35;;;;;;;20.03;14.90;;;8.80;99.90;;;;;;5033233;28;20344;-85
2023/10/26 02:33:02;;;;;;;16.93;13.57;;;8.80;99.90;;;;;;5034314;28;20763;-85
2023/10/26 02:35:28;;;;;;;20.30;14.00;;;8.80;99.90;;;;;;5037082;28;20249;-86
2023/10/26 02:37:55;;;;;;;18.07;14.07;;;8.80;99.90;;;;;;5057403;28;20605;-86
2023/10/26 02:40:22;;;;;;;17.70;13.97;;;8.80;99.90;;;;;;5043332;28;20284;-85
2023/10/26 02:42:51;;;;;;;18.17;14.00;;;8.80;99.90;;;;;;5042563;28;20230;-85
2023/10/26 02:45:18;;;;;;;18.63;14.97;;;8.80;99.90;;;;;;5060123;28;20219;-84
2023/10/26 02:47:46;;;;;;;18.33;14.27;;;8.80;99.90;;;;;;5073723;28;20256;-84
2023/10/26 02:50:13;;;;;;;19.83;14.17;;;8.80;99.90;;;;;;5041597;28;20266;-84
2023/10/26 02:52:41;;;;;;;19.27;13.53;;;8.80;99.90;;;;;;5039492;28;20239;-85
2023/10/26 02:55:08;;;;;;;22.13;15.03;;;8.80;99.90;;;;;;5059961;28;20708;-85
2023/10/26 02:57:35;;;;;;;19.97;14.77;;;8.80;99.90;;;;;;5061453;28;20244;-84
2023/10/26 03:00:02;;;;;;;20.83;15.57;;;8.80;99.90;;;;;;5043255;28;20865;-84
2023/10/26 03:02:29;;;;;;;20.00;15.27;;;8.80;99.90;;;;;;5037516;28;20231;-85
2023/10/26 03:04:58;;;;;;;17.60;13.90;;;8.80;99.90;;;;;;5041378;28;20221;-85
2023/10/26 03:07:25;;;;;;;18.87;14.17;;;8.80;99.90;;;;;;5048267;28;20797;-84
2023/10/26 03:09:52;;;;;;;18.23;13.77;;;8.70;99.90;;;;;;5042509;28;20765;-84
2023/10/26 03:12:20;;;;;;;19.30;15.07;;;8.70;99.90;;;;;;5060312;28;20477;-84
2023/10/26 03:14:47;;;;;;;17.83;15.27;;;8.70;99.90;;;;;;5042935;28;20226;-84
2023/10/26 03:17:16;;;;;;;19.77;15.23;;;8.70;99.90;;;;;;5044496;28;20222;-85
2023/10/26 03:19:44;;;;;;;20.70;15.00;;;8.70;99.90;;;;;;5045629;28;20233;-84
2023/10/26 03:22:13;;;;;;;19.27;15.13;;;8.70;99.90;;;;;;5043706;28;20333;-84
2023/10/26 03:24:40;;;;;;;18.57;14.50;;;8.70;99.90;;;;;;5060737;28;20230;-84
2023/10/26 03:27:07;;;;;;;23.27;16.07;;;8.60;99.90;;;;;;5045690;28;20219;-84
2023/10/26 03:29:34;;;;;;;19.17;14.80;;;8.60;99.90;;;;;;5044650;28;20233;-85
2023/10/26 03:32:02;;;;;;;19.13;15.13;;;8.60;99.90;;;;;;5043893;28;20309;-85
2023/10/26 03:34:29;;;;;;;18.80;14.53;;;8.60;99.90;;;;;;5063228;28;20230;-85
2023/10/26 03:36:56;;;;;;;18.97;15.47;;;8.60;99.90;;;;;;5063111;28;20323;-85
2023/10/26 03:39:25;;;;;;;21.20;16.17;;;8.60;99.90;;;;;;5059538;28;20239;-85
2023/10/26 03:41:51;;;;;;;20.93;15.63;;;8.50;99.90;;;;;;5044966;28;20722;-84
2023/10/26 03:44:18;;;;;;;24.00;16.43;;;8.50;99.90;;;;;;5040023;28;20288;-85
2023/10/26 03:46:46;;;;;;;21.33;16.20;;;8.50;99.90;;;;;;5042518;28;20461;-84
2023/10/26 03:49:13;;;;;;;22.70;16.30;;;8.50;99.90;;;;;;5041348;28;20323;-85
2023/10/26 03:51:41;;;;;;;21.60;16.03;;;8.50;99.90;;;;;;5038837;28;20292;-85
2023/10/26 03:54:08;;;;;;;21.47;16.53;;;8.60;99.90;;;;;;5027191;28;20225;-85
2023/10/26 03:56:36;;;;;;;22.57;15.57;;;8.50;99.90;;;;;;5043878;28;20867;-85
2023/10/26 03:59:03;;;;;;;23.23;17.13;;;8.50;99.90;;;;;;5047458;28;20222;-85
2023/10/26 04:01:30;;;;;;;20.90;16.20;;;8.50;99.90;;;;;;5038134;28;20226;-85
2023/10/26 04:03:57;;;;;;;22.93;17.00;;;8.50;99.90;;;;;;5032109;28;20377;-86
2023/10/26 04:06:24;;;;;;;21.73;16.83;;;8.50;99.90;;;;;;5040288;28;20549;-85
2023/10/26 04:08:56;;;;;;;21.70;16.63;;;8.60;99.90;;;;;;5041811;28;20314;-85
2023/10/26 04:11:22;;;;;;;23.73;17.23;;;8.60;99.90;;;;;;5074304;28;20845;-84
2023/10/26 04:13:50;;;;;;;24.00;17.17;;;8.60;99.90;;;;;;5054845;28;20317;-84
2023/10/26 04:16:17;;;;;;;23.03;16.73;;;8.60;99.90;;;;;;5033203;28;20259;-84
2023/10/26 04:18:44;;;;;;;22.43;17.33;;;8.60;99.90;;;;;;5041001;28;20314;-84
2023/10/26 04:21:11;;;;;;;24.43;17.13;;;8.60;99.90;;;;;;5040924;28;20233;-84
2023/10/26 04:23:37;;;;;;;23.07;17.40;;;8.60;99.90;;;;;;5036208;28;20299;-85
2023/10/26 04:26:04;;;;;;;22.97;17.23;;;8.60;99.90;;;;;;5037181;28;20262;-85
2023/10/26 04:28:31;;;;;;;24.57;17.43;;;8.60;99.90;;;;;;5035497;28;20241;-85
2023/10/26 04:30:59;;;;;;;24.70;16.90;;;8.60;99.90;;;;;;5026663;28;20220;-84
2023/10/26 04:33:26;;;;;;;24.90;18.30;;;8.70;99.90;;;;;;5070136;28;20308;-85
2023/10/26 04:35:53;;;;;;;25.43;18.57;;;8.70;99.90;;;;;;5035472;28;20853;-84
2023/10/26 04:38:20;;;;;;;25.63;18.03;;;8.70;99.90;;;;;;5040505;28;20231;-85
2023/10/26 04:40:47;;;;;;;28.30;19.60;;;8.70;99.90;;;;;;5064928;28;20254;-85
2023/10/26 04:43:14;;;;;;;27.27;18.80;;;8.70;99.90;;;;;;5048695;28;20302;-85
2023/10/26 04:45:40;;;;;;;26.70;18.93;;;8.70;99.90;;;;;;5046732;28;20637;-85
2023/10/26 04:48:09;;;;;;;28.40;20.20;;;8.80;99.90;;;;;;5063994;28;20721;-85
2023/10/26 04:50:36;;;;;;;27.10;19.37;;;8.80;99.90;;;;;;5040941;28;20568;-85
2023/10/26 04:53:03;;;;;;;27.23;19.57;;;8.80;99.90;;;;;;5043480;28;20752;-86
2023/10/26 04:55:33;;;;;;;26.43;19.27;;;8.80;99.90;;;;;;5036555;28;20240;-84
2023/10/26 04:58:01;;;;;;;29.40;19.93;;;8.80;99.90;;;;;;5046882;28;20256;-85
2023/10/26 05:00:29;;;;;;;28.97;20.03;;;8.80;99.90;;;;;;5059984;28;20227;-85
2023/10/26 05:02:56;;;;;;;27.80;19.80;;;8.80;99.90;;;;;;5050987;28;20231;-85
2023/10/26 05:05:24;;;;;;;28.17;19.97;;;8.80;99.90;;;;;;5069849;28;20233;-85
2023/10/26 05:07:51;;;;;;;34.83;20.97;;;8.90;99.90;;;;;;5043426;28;20256;-85
2023/10/26 05:10:18;;;;;;;30.47;20.27;;;8.90;99.90;;;;;;5042918;28;20246;-85
2023/10/26 05:12:45;;;;;;;27.17;19.10;;;8.90;99.90;;;;;;5060774;28;20231;-87
2023/10/26 05:15:13;;;;;;;27.97;20.03;;;8.90;99.90;;;;;;5042835;28;20284;-86
2023/10/26 05:17:40;;;;;;;26.97;19.23;;;8.90;99.90;;;;;;5039210;28;20861;-87
2023/10/26 05:20:09;;;;;;;29.27;19.77;;;8.90;99.90;;;;;;5039843;28;20957;-89
2023/10/26 05:22:37;;;;;;;30.00;19.07;;;8.90;99.90;;;;;;5044702;28;20672;-89
2023/10/26 05:25:05;;;;;;;27.57;18.17;;;8.90;99.90;;;;;;5059607;28;20688;-86
2023/10/26 05:27:32;;;;;;;26.60;18.60;;;8.80;99.90;;;;;;5038683;28;20715;-87
2023/10/26 05:29:59;;;;;;;27.53;19.07;;;8.90;99.90;;;;;;5038346;28;20258;-86
2023/10/26 05:32:26;;;;;;;26.47;17.80;;;8.90;99.90;;;;;;5039621;28;20270;-85
2023/10/26 05:34:53;;;;;;;27.27;18.13;;;8.80;99.90;;;;;;5037514;28;20236;-85
2023/10/26 05:37:20;;;;;;;25.20;16.97;;;8.80;99.90;;;;;;5042057;28;20273;-87
2023/10/26 05:39:48;;;;;;;25.10;17.03;;;8.80;99.90;;;;;;5040580;28;20614;-86
2023/10/26 05:42:15;;;;;;;25.70;16.33;;;8.80;99.90;;;;;;5036663;28;20797;-87
2023/10/26 05:44:42;;;;;;;27.50;17.20;;;8.80;99.90;;;;;;5044988;28;20323;-87
2023/10/26 05:47:09;;;;;;;25.93;17.07;;;8.80;99.90;;;;;;5050188;28;20245;-86
2023/10/26 05:49:36;;;;;;;24.70;16.80;;;8.90;99.90;;;;;;5065980;28;20235;-86
2023/10/26 05:52:03;;;;;;;23.47;16.70;;;8.80;99.90;;;;;;5040150;28;20237;-87
2023/10/26 05:54:30;;;;;;;24.17;16.63;;;8.90;99.90;;;;;;5073346;28;20269;-86
2023/10/26 05:56:58;;;;;;;24.57;16.47;;;8.90;99.90;;;;;;5040052;28;20316;-87
2023/10/26 05:59:26;;;;;;;27.20;16.87;;;8.90;99.90;;;;;;5038539;28;20230;-84
2023/10/26 06:01:53;;;;;;;22.77;16.00;;;8.90;99.90;;;;;;5052299;28;20230;-84
2023/10/26 06:04:20;;;;;;;23.73;15.70;;;8.90;99.90;;;;;;5063846;28;20223;-84
2023/10/26 06:06:46;;;;;;;23.37;16.23;;;8.90;99.90;;;;;;5069125;28;20261;-83
2023/10/26 06:09:13;;;;;;;23.30;16.70;;;8.90;99.90;;;;;;5064320;28;20779;-85
2023/10/26 06:11:40;;;;;;;21.80;15.37;;;8.90;99.90;;;;;;5046756;28;20228;-84
2023/10/26 06:14:09;;;;;;;21.27;14.87;;;8.90;99.90;;;;;;5063435;28;20256;-83
2023/10/26 06:16:35;;;;;;;24.60;15.30;;;8.90;99.90;;;;;;5043643;28;20226;-84
2023/10/26 06:19:02;;;;;;;22.40;15.23;;;8.90;99.90;;;;;;5048021;28;20250;-84
2023/10/26 06:21:29;;;;;;;23.60;15.53;;;8.90;99.90;;;;;;5052533;28;21493;-84
2023/10/26 06:23:56;;;;;;;24.13;15.47;;;8.90;99.90;;;;;;5050059;28;20230;-83
2023/10/26 06:26:23;;;;;;;23.67;15.93;;;8.90;99.90;;;;;;5062634;28;20246;-84
2023/10/26 06:28:50;;;;;;;25.43;16.90;;;9.00;99.90;;;;;;5069483;28;20234;-84
2023/10/26 06:31:19;;;;;;;22.20;15.83;;;9.00;99.90;;;;;;5082215;28;20712;-83
2023/10/26 06:33:45;;;;;;;23.87;15.43;;;9.00;99.90;;;;;;5049253;28;20219;-83
2023/10/26 06:36:12;;;;;;;24.83;15.27;;;8.90;99.90;;;;;;5052027;28;20350;-83
2023/10/26 06:38:39;;;;;;;23.13;15.97;;;9.00;99.90;;;;;;5048346;28;20284;-82
2023/10/26 06:41:06;;;;;;;23.20;15.80;;;9.00;99.90;;;;;;5050797;28;20312;-84
2023/10/26 06:43:33;;;;;;;22.93;15.63;;;9.00;99.90;;;;;;5043510;28;20309;-84
2023/10/26 06:46:00;;;;;;;21.23;14.67;;;9.00;99.90;;;;;;5043645;28;20277;-84
2023/10/26 06:48:28;;;;;;;22.93;15.67;;;9.00;99.90;;;;;;5047156;28;20231;-84
2023/10/26 06:50:58;;;;;;;19.60;14.63;;;9.00;99.90;;;;;;5059834;28;20276;-85
2023/10/26 06:53:25;;;;;;;20.80;14.77;;;9.00;99.90;;;;;;5047067;28;20244;-84
2023/10/26 06:55:53;;;;;;;20.60;14.90;;;9.10;99.90;;;;;;5060947;28;20234;-84
2023/10/26 06:58:19;;;;;;;21.50;15.20;;;9.10;99.90;;;;;;5048684;28;20223;-84
2023/10/26 07:00:46;;;;;;;22.40;14.90;;;9.10;99.90;;;;;;5048252;28;21026;-84
2023/10/26 07:03:13;;;;;;;21.03;14.43;;;9.10;99.90;;;;;;5064023;28;20310;-84
2023/10/26 07:05:41;;;;;;;21.27;14.70;;;9.10;99.90;;;;;;5046144;28;20254;-84
2023/10/26 07:08:08;;;;;;;19.87;13.67;;;9.20;99.90;;;;;;5048514;28;20253;-84
2023/10/26 07:10:35;;;;;;;21.33;14.20;;;9.10;99.90;;;;;;5077729;28;20241;-84
2023/10/26 07:13:01;;;;;;;22.43;14.60;;;9.20;99.90;;;;;;5051487;28;20271;-84
2023/10/26 07:15:28;;;;;;;20.40;14.27;;;9.20;99.90;;;;;;5043945;28;20223;-84
2023/10/26 07:17:55;;;;;;;23.40;14.90;;;9.30;99.90;;;;;;5051770;28;20359;-83
2023/10/26 07:20:22;;;;;;;18.83;13.03;;;9.30;99.90;;;;;;5037011;28;20238;-84
2023/10/26 07:22:52;;;;;;;19.53;13.33;;;9.30;99.90;;;;;;5067787;28;20222;-83
2023/10/26 07:25:19;;;;;;;19.27;14.33;;;9.30;99.90;;;;;;5049648;28;20290;-84
2023/10/26 07:27:45;;;;;;;20.33;13.97;;;9.40;99.90;;;;;;5057811;28;20227;-83
2023/10/26 07:30:12;;;;;;;22.40;13.33;;;9.40;99.90;;;;;;5049023;28;20317;-83
2023/10/26 07:32:39;;;;;;;17.57;12.83;;;9.50;99.90;;;;;;5051463;28;20262;-82
2023/10/26 07:35:06;;;;;;;19.53;13.60;;;9.50;99.90;;;;;;5044746;28;20310;-83
2023/10/26 07:37:33;;;;;;;18.03;12.53;;;9.50;99.90;;;;;;5059185;28;20230;-83
2023/10/26 07:40:01;;;;;;;20.40;13.87;;;9.60;99.90;;;;;;5047148;28;20338;-85
2023/10/26 07:42:28;;;;;;;18.13;13.50;;;9.60;99.90;;;;;;5071049;28;20226;-83
2023/10/26 07:44:54;;;;;;;17.40;12.40;;;9.70;99.90;;;;;;5063729;28;20263;-83
2023/10/26 07:47:22;;;;;;;18.10;12.80;;;9.70;99.90;;;;;;5049902;28;20225;-83
2023/10/26 07:49:49;;;;;;;20.00;12.67;;;9.80;99.90;;;;;;5051976;28;20262;-82
2023/10/26 07:52:16;;;;;;;16.60;12.33;;;9.80;99.90;;;;;;5045526;28;20300;-83
2023/10/26 07:54:42;;;;;;;18.33;12.53;;;9.80;99.90;;;;;;5048390;28;20246;-83
2023/10/26 07:57:11;;;;;;;16.23;11.20;;;9.90;99.90;;;;;;5049306;28;20820;-83
2023/10/26 07:59:37;;;;;;;14.83;11.40;;;9.90;99.90;;;;;;5064745;28;20765;-83
2023/10/26 08:02:04;;;;;;;16.00;11.47;;;10.00;99.90;;;;;;5046877;28;20238;-83
2023/10/26 08:04:32;;;;;;;13.47;10.57;;;10.00;99.90;;;;;;5066300;28;20246;-84
2023/10/26 08:07:00;;;;;;;15.57;11.10;;;10.00;99.90;;;;;;5067041;28;20247;-84
2023/10/26 08:09:31;;;;;;;16.13;10.10;;;10.10;99.90;;;;;;5043161;28;20238;-83
2023/10/26 08:11:58;;;;;;;16.43;11.00;;;10.20;99.90;;;;;;5064206;28;20218;-84
2023/10/26 08:14:27;;;;;;;13.83;10.17;;;10.30;99.90;;;;;;5046701;28;20228;-82
2023/10/26 08:16:54;;;;;;;12.07;9.70;;;10.30;99.90;;;;;;5048497;28;20311;-82
2023/10/26 08:19:21;;;;;;;12.53;9.47;;;10.40;99.90;;;;;;5065243;28;20223;-82
2023/10/26 08:21:48;;;;;;;12.27;8.80;;;10.50;99.90;;;;;;5064993;28;20323;-83
2023/10/26 08:24:16;;;;;;;11.33;8.57;;;10.50;99.90;;;;;;5026224;28;20241;-88
2023/10/26 08:26:42;;;;;;;12.53;8.90;;;10.50;99.90;;;;;;5037283;28;20258;-85
2023/10/26 08:29:09;;;;;;;11.00;8.67;;;10.60;99.90;;;;;;5047782;28;20222;-90
2023/10/26 09:18:33;;;;;;;10.57;7.03;;;10.50;99.90;;;;;;5055685;28;20194;-88
2023/10/26 09:21:08;;;;;;;9.43;7.50;;;10.50;99.90;;;;;;5071195;28;20294;-88
2023/10/26 09:23:37;;;;;;;9.80;7.13;;;10.60;99.90;;;;;;5033708;28;20227;-90
2023/10/26 09:29:48;;;;;;;8.90;6.23;;;10.60;99.90;;;;;;5074904;28;20739;-89
2023/10/26 09:32:15;;;;;;;7.50;6.20;;;10.60;99.90;;;;;;5048069;28;20298;-89
2023/10/26 09:34:44;;;;;;;7.90;5.73;;;10.60;99.90;;;;;;5061999;28;20258;-89
2023/10/26 09:37:45;;;;;;;6.77;5.37;;;10.60;99.90;;;;;;5051577;28;20220;-88
2023/10/26 09:40:12;;;;;;;7.37;5.17;;;10.70;99.90;;;;;;5040433;28;20227;-88
2023/10/26 09:42:39;;;;;;;5.23;4.73;;;10.70;99.90;;;;;;5057406;28;20223;-88
2023/10/26 09:45:10;;;;;;;5.23;4.53;;;10.70;99.90;;;;;;5026521;28;20258;-89
2023/10/26 09:47:37;;;;;;;6.80;4.37;;;10.80;99.90;;;;;;5040952;28;20234;-89
2023/10/26 09:50:07;;;;;;;5.27;4.07;;;10.80;99.90;;;;;;5053263;28;20577;-89
2023/10/26 09:52:35;;;;;;;4.57;4.00;;;10.80;99.90;;;;;;5048732;28;20246;-88
2023/10/26 09:55:04;;;;;;;6.10;3.70;;;10.90;99.90;;;;;;5046829;28;20221;-88
2023/10/26 09:57:35;;;;;;;4.20;3.80;;;10.90;99.90;;;;;;5074065;28;20230;-88
2023/10/26 10:00:10;;;;;;;5.37;3.53;;;11.00;99.90;;;;;;5050312;28;20301;-89
2023/10/26 10:02:41;;;;;;;4.83;3.60;;;11.00;99.90;;;;;;5031299;28;20233;-89
2023/10/26 10:05:38;;;;;;;6.90;3.90;;;11.10;99.90;;;;;;5052543;28;20337;-89
2023/10/26 10:08:05;;;;;;;4.37;3.97;;;11.20;99.90;;;;;;5076108;28;20232;-88
2023/10/26 10:10:33;;;;;;;6.83;4.43;;;11.40;99.90;;;;;;5035557;28;20235;-87
2023/10/26 10:12:59;;;;;;;5.50;3.80;;;11.40;99.90;;;;;;5061152;28;20216;-87
2023/10/26 10:15:38;;;;;;;4.60;3.97;;;11.50;99.90;;;;;;5044328;28;20259;-88
2023/10/26 10:18:05;;;;;;;4.50;3.87;;;11.60;99.90;;;;;;5045815;28;20229;-87
2023/10/26 10:20:35;;;;;;;4.97;4.30;;;11.70;99.90;;;;;;5042674;28;20241;-85
2023/10/26 10:23:02;;;;;;;6.80;4.83;;;11.80;99.90;;;;;;5045579;28;20284;-89
2023/10/26 10:25:59;;;;;;;5.67;4.60;;;11.80;99.90;;;;;;5041069;28;20238;-86
2023/10/26 10:28:48;;;;;;;5.53;4.73;;;11.90;99.90;;;;;;5075854;28;20247;-88
2023/10/26 10:31:37;;;;;;;5.13;3.63;;;12.00;99.90;;;;;;5038459;28;20226;-86
2023/10/26 10:34:05;;;;;;;4.37;3.80;;;12.00;99.90;;;;;;5042280;28;20262;-88
2023/10/26 10:37:06;;;;;;;5.47;3.80;;;12.20;99.90;;;;;;5043887;28;20235;-87
2023/10/26 10:39:34;;;;;;;5.33;3.80;;;12.30;99.90;;;;;;5043654;28;20227;-87
2023/10/26 10:42:04;;;;;;;37.87;30.07;;;12.30;99.90;;;;;;5062744;28;20224;-86
2023/10/26 10:44:36;;;;;;;7.23;4.83;;;12.40;99.90;;;;;;5075141;28;20275;-88
2023/10/26 10:47:03;;;;;;;4.33;3.93;;;12.50;99.90;;;;;;5043817;28;20227;-88
2023/10/26 10:49:30;;;;;;;4.70;3.30;;;12.50;99.90;;;;;;5077662;28;20273;-86
2023/10/26 10:51:58;;;;;;;4.27;3.57;;;12.50;99.90;;;;;;5040889;28;20277;-87
2023/10/26 10:54:25;;;;;;;3.50;3.13;;;12.60;99.90;;;;;;5042099;28;20235;-87
2023/10/26 10:56:53;;;;;;;3.93;3.20;;;12.60;99.90;;;;;;5046672;28;20229;-87
2023/10/26 10:59:22;;;;;;;3.30;3.00;;;12.60;99.90;;;;;;5062041;28;20779;-86
2023/10/26 11:01:50;;;;;;;3.53;3.10;;;12.60;99.90;;;;;;5043849;28;20276;-88
2023/10/26 11:04:17;;;;;;;3.53;3.20;;;12.60;99.90;;;;;;5061893;28;20216;-86
2023/10/26 11:06:49;;;;;;;3.90;3.50;;;12.60;99.90;;;;;;5062787;28;20225;-85
2023/10/26 11:09:26;;;;;;;4.00;3.60;;;12.50;99.90;;;;;;5043872;28;20869;-87
2023/10/26 11:11:55;;;;;;;3.33;3.00;;;12.40;99.90;;;;;;5042550;28;20791;-86
2023/10/26 11:14:22;;;;;;;3.50;3.20;;;12.40;99.90;;;;;;5062533;28;20323;-85
2023/10/26 11:16:51;;;;;;;3.80;3.37;;;12.30;99.90;;;;;;5046686;28;20227;-89
2023/10/26 11:19:19;;;;;;;3.70;2.93;;;12.30;99.90;;;;;;5056261;28;20222;-88
2023/10/26 11:21:45;;;;;;;5.40;4.20;;;12.20;99.90;;;;;;5047405;28;20225;-88
2023/10/26 11:24:18;;;;;;;5.43;4.93;;;12.10;99.90;;;;;;5048513;28;20234;-84
2023/10/26 11:27:08;;;;;;;3.60;3.17;;;12.10;99.90;;;;;;5080527;28;20219;-83
2023/10/26 11:29:35;;;;;;;5.03;3.47;;;12.10;99.90;;;;;;5035327;28;20238;-87
2023/10/26 11:32:01;;;;;;;3.63;3.00;;;12.10;99.90;;;;;;5044972;28;20224;-86
2023/10/26 11:34:29;;;;;;;3.70;3.10;;;12.10;99.90;;;;;;5042832;28;20827;-89
2023/10/26 11:53:06;;;;;;;3.43;3.13;;;12.30;99.90;;;;;;5019171;28;20187;-88
2023/10/26 11:55:35;;;;;;;3.83;3.07;;;12.30;99.90;;;;;;4981600;28;20242;-89
2023/10/26 11:58:02;;;;;;;4.77;3.40;;;12.30;99.90;;;;;;5011875;28;20319;-90
2023/10/26 12:00:30;;;;;;;3.60;3.30;;;12.30;99.90;;;;;;5069359;28;20658;-88
2023/10/26 12:02:58;;;;;;;3.53;3.20;;;12.30;99.90;;;;;;5045245;28;20294;-90
2023/10/26 15:23:10;;;;;;;3.13;1.20;;;11.40;99.90;;;;;;5063011;28;20296;-82
2023/10/26 15:25:38;;;;;;;1.90;1.40;;;11.40;99.90;;;;;;5037602;28;20925;-87
2023/10/26 15:28:05;;;;;;;2.17;1.40;;;11.40;99.90;;;;;;5037595;28;20234;-88
2023/10/26 15:30:31;;;;;;;2.73;1.40;;;11.30;99.90;;;;;;5055290;28;20221;-87
2023/10/26 15:32:58;;;;;;;3.27;1.83;;;11.30;99.90;;;;;;5025054;28;20311;-87
2023/10/26 15:35:25;;;;;;;1.17;1.03;;;11.20;99.90;;;;;;5018844;28;20238;-88
2023/10/26 15:37:52;;;;;;;1.00;0.90;;;11.20;99.90;;;;;;5024882;28;20220;-88
2023/10/26 15:40:19;;;;;;;2.50;1.03;;;11.10;99.90;;;;;;5055815;28;20297;-87
2023/10/26 15:42:47;;;;;;;1.30;0.80;;;11.10;99.90;;;;;;5004416;28;20248;-89
2023/10/26 15:45:14;;;;;;;1.73;1.00;;;11.10;99.90;;;;;;5024656;28;20225;-85
2023/10/26 15:47:41;;;;;;;1.23;0.90;;;11.00;99.90;;;;;;5028656;28;20231;-86
2023/10/26 15:50:09;;;;;;;1.47;0.80;;;11.00;99.90;;;;;;5038576;28;20896;-86
2023/10/26 15:52:35;;;;;;;1.43;0.90;;;11.00;99.90;;;;;;5043205;28;20316;-86
2023/10/26 15:55:02;;;;;;;1.50;1.03;;;10.90;99.90;;;;;;5049968;28;20259;-88
2023/10/26 15:57:31;;;;;;;1.73;1.10;;;10.90;99.90;;;;;;5015547;28;20224;-87
2023/10/26 15:59:59;;;;;;;1.30;0.97;;;10.90;99.90;;;;;;5033576;28;20220;-87
2023/10/26 16:02:26;;;;;;;3.93;1.20;;;10.90;99.90;;;;;;5015521;28;21062;-87
2023/10/26 16:04:52;;;;;;;5.47;3.43;;;10.80;99.90;;;;;;5018502;28;20228;-87
2023/10/26 16:07:19;;;;;;;2.80;1.33;;;10.80;99.90;;;;;;5041592;28;20657;-87
2023/10/26 16:09:46;;;;;;;3.20;1.30;;;10.80;99.90;;;;;;5049233;28;20991;-87
2023/10/26 16:12:13;;;;;;;3.37;1.50;;;10.80;99.90;;;;;;5048336;28;20221;-87
2023/10/26 16:14:39;;;;;;;1.67;1.40;;;10.80;99.90;;;;;;5032343;28;20228;-86
2023/10/26 16:17:08;;;;;;;2.27;1.53;;;10.70;99.90;;;;;;5035704;28;20315;-87
2023/10/26 16:19:35;;;;;;;2.30;2.10;;;10.70;99.90;;;;;;5018787;28;20234;-86
2023/10/26 16:22:02;;;;;;;2.30;2.10;;;10.70;99.90;;;;;;5017789;28;20231;-87
2023/10/26 16:24:29;;;;;;;3.10;1.50;;;10.70;99.90;;;;;;5011079;28;20231;-87
2023/10/26 16:26:56;;;;;;;1.90;1.03;;;10.70;99.90;;;;;;5018105;28;20229;-87
2023/10/26 16:29:22;;;;;;;2.93;1.50;;;10.70;99.90;;;;;;5049632;28;20227;-87
2023/10/26 16:31:49;;;;;;;2.07;1.37;;;10.60;99.90;;;;;;5017224;28;20225;-87
2023/10/26 16:34:17;;;;;;;1.67;1.10;;;10.60;99.90;;;;;;5019023;28;20592;-86
2023/10/26 16:36:44;;;;;;;1.70;1.50;;;10.60;99.90;;;;;;5033003;28;20247;-87
2023/10/26 16:39:11;;;;;;;2.33;1.53;;;10.50;99.90;;;;;;5051905;28;20697;-82
2023/10/26 16:41:40;;;;;;;10.60;7.37;;;10.50;99.90;;;;;;5000708;28;20592;-85
2023/10/26 16:44:07;;;;;;;6.93;5.40;;;10.50;99.90;;;;;;5044209;28;20756;-86
2023/10/26 16:46:34;;;;;;;2.23;2.00;;;10.50;99.90;;;;;;5031393;28;20259;-86
2023/10/26 16:49:01;;;;;;;2.27;1.77;;;10.50;99.90;;;;;;5028274;28;20236;-86
2023/10/26 16:51:29;;;;;;;2.07;1.80;;;10.50;99.90;;;;;;5013753;28;20224;-86
2023/10/26 16:53:55;;;;;;;2.13;1.07;;;10.50;99.90;;;;;;5041680;28;20311;-85
2023/10/26 16:56:23;;;;;;;1.47;1.37;;;10.50;99.90;;;;;;5013159;28;20223;-87
2023/10/26 16:58:50;;;;;;;2.17;1.37;;;10.50;99.90;;;;;;5017433;28;20231;-86
2023/10/26 17:01:17;;;;;;;1.83;1.40;;;10.50;99.90;;;;;;5035118;28;20640;-87
2023/10/26 17:03:45;;;;;;;5.03;1.30;;;10.40;99.90;;;;;;5029969;28;20238;-86
2023/10/26 17:06:12;;;;;;;2.60;1.43;;;10.40;99.90;;;;;;5014264;28;20235;-86
2023/10/26 17:08:40;;;;;;;2.80;1.20;;;10.40;99.90;;;;;;5017980;28;20224;-86